sensor_id;sensor_type;location;lat;lon;timestamp;temperature;humidity
10566;DHT22;5331;48.148;16.326;2022-07-05T00:01:15;19.70;1.00
10566;DHT22;5331;48.148;16.326;2022-07-05T00:03:42;19.70;1.00
10566;DHT22;5331;48.148;16.326;2022-07-05T00:06:09;19.60;1.00
10566;DHT22;5331;48.148;16.326;2022-07-05T00:08:36;19.60;1.00
10566;DHT22;5331;48.148;16.326;2022-07-05T00:11:05;19.60;1.00
10566;DHT22;5331;48.148;16.326;2022-07-05T00:13:32;19.60;1.00
10566;DHT22;5331;48.148;16.326;2022-07-05T00:16:00;19.60;1.00
10566;DHT22;5331;48.148;16.326;2022-07-05T00:18:27;19.60;1.00
10566;DHT22;5331;48.148;16.326;2022-07-05T00:20:54;19.50;1.00
10566;DHT22;5331;48.148;16.326;2022-07-05T00:23:21;19.50;1.00
10566;DHT22;5331;48.148;16.326;2022-07-05T00:25:47;19.50;1.00
10566;DHT22;5331;48.148;16.326;2022-07-05T00:28:14;19.50;1.00
10566;DHT22;5331;48.148;16.326;2022-07-05T00:30:41;19.50;1.00
10566;DHT22;5331;48.148;16.326;2022-07-05T00:33:10;19.50;1.00
10566;DHT22;5331;48.148;16.326;2022-07-05T00:35:36;19.40;1.00
10566;DHT22;5331;48.148;16.326;2022-07-05T00:38:03;19.40;1.00
10566;DHT22;5331;48.148;16.326;2022-07-05T00:40:30;19.40;1.00
10566;DHT22;5331;48.148;16.326;2022-07-05T00:42:57;19.40;1.00
10566;DHT22;5331;48.148;16.326;2022-07-05T00:45:24;19.40;1.00
10566;DHT22;5331;48.148;16.326;2022-07-05T00:47:51;19.40;1.00
10566;DHT22;5331;48.148;16.326;2022-07-05T00:50:19;19.30;1.00
10566;DHT22;5331;48.148;16.326;2022-07-05T00:52:46;19.30;1.00
10566;DHT22;5331;48.148;16.326;2022-07-05T00:55:13;19.30;1.00
10566;DHT22;5331;48.148;16.326;2022-07-05T00:57:41;19.30;1.00
10566;DHT22;5331;48.148;16.326;2022-07-05T01:00:09;19.20;1.00
10566;DHT22;5331;48.148;16.326;2022-07-05T01:02:36;19.10;1.00
10566;DHT22;5331;48.148;16.326;2022-07-05T01:05:04;19.10;1.00
10566;DHT22;5331;48.148;16.326;2022-07-05T01:07:32;19.10;1.00
10566;DHT22;5331;48.148;16.326;2022-07-05T01:10:00;19.00;1.00
10566;DHT22;5331;48.148;16.326;2022-07-05T01:12:27;19.00;1.00
10566;DHT22;5331;48.148;16.326;2022-07-05T01:14:55;19.00;1.00
10566;DHT22;5331;48.148;16.326;2022-07-05T01:17:23;18.90;1.00
10566;DHT22;5331;48.148;16.326;2022-07-05T01:19:50;18.90;1.00
10566;DHT22;5331;48.148;16.326;2022-07-05T01:22:19;18.90;1.00
10566;DHT22;5331;48.148;16.326;2022-07-05T01:24:49;18.90;1.00
10566;DHT22;5331;48.148;16.326;2022-07-05T01:27:17;18.90;1.00
10566;DHT22;5331;48.148;16.326;2022-07-05T01:29:45;18.80;1.00
10566;DHT22;5331;48.148;16.326;2022-07-05T01:32:12;18.80;1.00
10566;DHT22;5331;48.148;16.326;2022-07-05T01:34:40;18.80;1.00
10566;DHT22;5331;48.148;16.326;2022-07-05T01:37:08;18.70;1.00
10566;DHT22;5331;48.148;16.326;2022-07-05T01:39:35;18.80;1.00
10566;DHT22;5331;48.148;16.326;2022-07-05T01:42:04;18.80;1.00
10566;DHT22;5331;48.148;16.326;2022-07-05T01:44:31;18.70;1.00
10566;DHT22;5331;48.148;16.326;2022-07-05T01:47:04;18.60;1.00
10566;DHT22;5331;48.148;16.326;2022-07-05T01:49:35;18.60;1.00
10566;DHT22;5331;48.148;16.326;2022-07-05T01:52:08;18.60;1.00
10566;DHT22;5331;48.148;16.326;2022-07-05T01:54:36;18.60;1.00
10566;DHT22;5331;48.148;16.326;2022-07-05T01:57:06;18.60;1.00
10566;DHT22;5331;48.148;16.326;2022-07-05T01:59:34;18.50;1.00
10566;DHT22;5331;48.148;16.326;2022-07-05T02:02:02;18.50;1.00
10566;DHT22;5331;48.148;16.326;2022-07-05T02:04:29;18.50;1.00
10566;DHT22;5331;48.148;16.326;2022-07-05T02:06:56;18.60;1.00
10566;DHT22;5331;48.148;16.326;2022-07-05T02:09:24;18.60;1.00
10566;DHT22;5331;48.148;16.326;2022-07-05T02:11:51;18.60;1.00
10566;DHT22;5331;48.148;16.326;2022-07-05T02:14:20;18.60;1.00
10566;DHT22;5331;48.148;16.326;2022-07-05T02:16:47;18.50;1.00
10566;DHT22;5331;48.148;16.326;2022-07-05T02:19:14;18.50;1.00
10566;DHT22;5331;48.148;16.326;2022-07-05T02:21:41;18.50;1.00
10566;DHT22;5331;48.148;16.326;2022-07-05T02:24:08;18.50;1.00
10566;DHT22;5331;48.148;16.326;2022-07-05T02:26:35;18.50;1.00
10566;DHT22;5331;48.148;16.326;2022-07-05T02:29:02;18.50;1.00
10566;DHT22;5331;48.148;16.326;2022-07-05T02:31:31;18.50;1.00
10566;DHT22;5331;48.148;16.326;2022-07-05T02:33:58;18.50;1.00
10566;DHT22;5331;48.148;16.326;2022-07-05T02:36:26;18.50;1.00
10566;DHT22;5331;48.148;16.326;2022-07-05T02:38:53;18.50;1.00
10566;DHT22;5331;48.148;16.326;2022-07-05T02:41:19;18.60;1.00
10566;DHT22;5331;48.148;16.326;2022-07-05T02:43:46;18.60;1.00
10566;DHT22;5331;48.148;16.326;2022-07-05T02:46:13;18.60;1.00
10566;DHT22;5331;48.148;16.326;2022-07-05T02:48:41;18.60;1.00
10566;DHT22;5331;48.148;16.326;2022-07-05T02:51:08;18.70;1.00
10566;DHT22;5331;48.148;16.326;2022-07-05T02:53:35;18.70;1.00
10566;DHT22;5331;48.148;16.326;2022-07-05T02:56:03;18.70;1.00
10566;DHT22;5331;48.148;16.326;2022-07-05T02:58:30;18.70;1.00
10566;DHT22;5331;48.148;16.326;2022-07-05T03:00:57;18.60;1.00
10566;DHT22;5331;48.148;16.326;2022-07-05T03:03:24;18.60;1.00
10566;DHT22;5331;48.148;16.326;2022-07-05T03:05:52;18.60;1.00
10566;DHT22;5331;48.148;16.326;2022-07-05T03:08:19;18.60;1.00
10566;DHT22;5331;48.148;16.326;2022-07-05T03:10:46;18.60;1.00
10566;DHT22;5331;48.148;16.326;2022-07-05T03:13:13;18.60;1.00
10566;DHT22;5331;48.148;16.326;2022-07-05T03:15:40;18.70;1.00
10566;DHT22;5331;48.148;16.326;2022-07-05T03:18:08;18.70;1.00
10566;DHT22;5331;48.148;16.326;2022-07-05T03:20:35;18.80;1.00
10566;DHT22;5331;48.148;16.326;2022-07-05T03:23:03;18.80;1.00
10566;DHT22;5331;48.148;16.326;2022-07-05T03:25:30;18.90;1.00
10566;DHT22;5331;48.148;16.326;2022-07-05T03:27:57;19.00;1.00
10566;DHT22;5331;48.148;16.326;2022-07-05T03:30:24;19.10;1.00
10566;DHT22;5331;48.148;16.326;2022-07-05T03:32:51;19.10;1.00
10566;DHT22;5331;48.148;16.326;2022-07-05T03:35:18;19.20;1.00
10566;DHT22;5331;48.148;16.326;2022-07-05T03:37:44;19.20;1.00
10566;DHT22;5331;48.148;16.326;2022-07-05T03:40:13;19.20;1.00
10566;DHT22;5331;48.148;16.326;2022-07-05T03:42:40;19.30;1.00
10566;DHT22;5331;48.148;16.326;2022-07-05T03:45:08;19.40;1.00
10566;DHT22;5331;48.148;16.326;2022-07-05T03:47:35;19.40;1.00
10566;DHT22;5331;48.148;16.326;2022-07-05T03:50:02;19.40;1.00
10566;DHT22;5331;48.148;16.326;2022-07-05T03:52:29;19.40;1.00
10566;DHT22;5331;48.148;16.326;2022-07-05T03:54:55;19.50;1.00
10566;DHT22;5331;48.148;16.326;2022-07-05T03:57:24;19.50;1.00
10566;DHT22;5331;48.148;16.326;2022-07-05T03:59:50;19.60;1.00
10566;DHT22;5331;48.148;16.326;2022-07-05T04:02:17;19.60;1.00
10566;DHT22;5331;48.148;16.326;2022-07-05T04:04:44;19.60;1.00
10566;DHT22;5331;48.148;16.326;2022-07-05T04:07:11;19.60;1.00
10566;DHT22;5331;48.148;16.326;2022-07-05T04:09:38;19.70;1.00
10566;DHT22;5331;48.148;16.326;2022-07-05T04:12:06;19.70;1.00
10566;DHT22;5331;48.148;16.326;2022-07-05T04:14:34;19.70;1.00
10566;DHT22;5331;48.148;16.326;2022-07-05T04:17:01;19.80;1.00
10566;DHT22;5331;48.148;16.326;2022-07-05T04:19:28;19.80;1.00
10566;DHT22;5331;48.148;16.326;2022-07-05T04:21:55;19.80;1.00
10566;DHT22;5331;48.148;16.326;2022-07-05T04:24:22;19.80;1.00
10566;DHT22;5331;48.148;16.326;2022-07-05T04:26:49;19.90;1.00
10566;DHT22;5331;48.148;16.326;2022-07-05T04:29:16;19.90;1.00
10566;DHT22;5331;48.148;16.326;2022-07-05T04:31:44;19.90;1.00
10566;DHT22;5331;48.148;16.326;2022-07-05T04:34:12;19.90;1.00
10566;DHT22;5331;48.148;16.326;2022-07-05T04:36:38;19.90;1.00
10566;DHT22;5331;48.148;16.326;2022-07-05T04:39:06;19.90;1.00
10566;DHT22;5331;48.148;16.326;2022-07-05T04:41:34;19.90;1.00
10566;DHT22;5331;48.148;16.326;2022-07-05T04:44:00;19.90;1.00
10566;DHT22;5331;48.148;16.326;2022-07-05T04:46:28;19.90;1.00
10566;DHT22;5331;48.148;16.326;2022-07-05T04:48:56;20.00;1.00
10566;DHT22;5331;48.148;16.326;2022-07-05T04:51:23;20.00;1.00
10566;DHT22;5331;48.148;16.326;2022-07-05T04:53:50;20.00;1.00
10566;DHT22;5331;48.148;16.326;2022-07-05T04:56:17;20.10;1.00
10566;DHT22;5331;48.148;16.326;2022-07-05T04:58:43;20.10;1.00
10566;DHT22;5331;48.148;16.326;2022-07-05T05:01:10;20.10;1.00
10566;DHT22;5331;48.148;16.326;2022-07-05T05:03:37;20.10;1.00
10566;DHT22;5331;48.148;16.326;2022-07-05T05:06:06;20.20;1.00
10566;DHT22;5331;48.148;16.326;2022-07-05T05:08:33;20.20;1.00
10566;DHT22;5331;48.148;16.326;2022-07-05T05:10:59;20.20;1.00
10566;DHT22;5331;48.148;16.326;2022-07-05T05:13:26;20.20;1.00
10566;DHT22;5331;48.148;16.326;2022-07-05T05:15:53;20.30;1.00
10566;DHT22;5331;48.148;16.326;2022-07-05T05:18:20;20.20;1.00
10566;DHT22;5331;48.148;16.326;2022-07-05T05:20:52;20.20;1.00
10566;DHT22;5331;48.148;16.326;2022-07-05T05:23:21;20.20;1.00
10566;DHT22;5331;48.148;16.326;2022-07-05T05:25:48;20.30;1.00
10566;DHT22;5331;48.148;16.326;2022-07-05T05:28:15;20.30;1.00
10566;DHT22;5331;48.148;16.326;2022-07-05T05:30:42;20.30;1.00
10566;DHT22;5331;48.148;16.326;2022-07-05T05:33:09;20.30;1.00
10566;DHT22;5331;48.148;16.326;2022-07-05T05:35:35;20.30;1.00
10566;DHT22;5331;48.148;16.326;2022-07-05T05:38:02;20.20;1.00
10566;DHT22;5331;48.148;16.326;2022-07-05T05:40:31;20.20;1.00
10566;DHT22;5331;48.148;16.326;2022-07-05T05:42:58;20.20;1.00
10566;DHT22;5331;48.148;16.326;2022-07-05T05:45:25;20.20;1.00
10566;DHT22;5331;48.148;16.326;2022-07-05T05:47:54;20.30;1.00
10566;DHT22;5331;48.148;16.326;2022-07-05T05:50:22;20.20;1.00
10566;DHT22;5331;48.148;16.326;2022-07-05T05:52:49;20.20;1.00
10566;DHT22;5331;48.148;16.326;2022-07-05T05:55:16;20.20;1.00
10566;DHT22;5331;48.148;16.326;2022-07-05T05:57:46;20.20;1.00
10566;DHT22;5331;48.148;16.326;2022-07-05T06:00:14;20.20;1.00
10566;DHT22;5331;48.148;16.326;2022-07-05T06:02:41;20.20;1.00
10566;DHT22;5331;48.148;16.326;2022-07-05T06:05:09;20.20;1.00
10566;DHT22;5331;48.148;16.326;2022-07-05T06:07:50;20.30;1.00
10566;DHT22;5331;48.148;16.326;2022-07-05T06:10:18;20.30;1.00
10566;DHT22;5331;48.148;16.326;2022-07-05T06:12:47;20.20;1.00
10566;DHT22;5331;48.148;16.326;2022-07-05T06:15:14;20.20;1.00
10566;DHT22;5331;48.148;16.326;2022-07-05T06:17:41;20.30;1.00
10566;DHT22;5331;48.148;16.326;2022-07-05T06:20:10;20.30;1.00
10566;DHT22;5331;48.148;16.326;2022-07-05T06:22:37;20.30;1.00
10566;DHT22;5331;48.148;16.326;2022-07-05T06:25:05;20.30;1.00
10566;DHT22;5331;48.148;16.326;2022-07-05T06:27:38;20.30;1.00
10566;DHT22;5331;48.148;16.326;2022-07-05T06:30:08;20.40;1.00
10566;DHT22;5331;48.148;16.326;2022-07-05T06:32:36;20.40;1.00
10566;DHT22;5331;48.148;16.326;2022-07-05T06:35:03;20.40;1.00
10566;DHT22;5331;48.148;16.326;2022-07-05T06:37:40;20.40;1.00
10566;DHT22;5331;48.148;16.326;2022-07-05T06:40:09;20.50;1.00
10566;DHT22;5331;48.148;16.326;2022-07-05T06:42:36;20.50;1.00
10566;DHT22;5331;48.148;16.326;2022-07-05T06:45:06;20.60;1.00
10566;DHT22;5331;48.148;16.326;2022-07-05T06:47:33;20.60;1.00
10566;DHT22;5331;48.148;16.326;2022-07-05T06:50:00;20.60;1.00
10566;DHT22;5331;48.148;16.326;2022-07-05T06:52:28;20.60;1.00
10566;DHT22;5331;48.148;16.326;2022-07-05T06:54:55;20.70;1.00
10566;DHT22;5331;48.148;16.326;2022-07-05T06:57:23;20.80;1.00
10566;DHT22;5331;48.148;16.326;2022-07-05T06:59:50;20.80;1.00
10566;DHT22;5331;48.148;16.326;2022-07-05T07:02:19;20.90;1.00
10566;DHT22;5331;48.148;16.326;2022-07-05T07:04:46;20.90;1.00
10566;DHT22;5331;48.148;16.326;2022-07-05T07:07:13;20.90;1.00
10566;DHT22;5331;48.148;16.326;2022-07-05T07:09:57;21.00;1.00
10566;DHT22;5331;48.148;16.326;2022-07-05T07:12:24;21.00;1.00
10566;DHT22;5331;48.148;16.326;2022-07-05T07:14:51;21.00;1.00
10566;DHT22;5331;48.148;16.326;2022-07-05T07:17:20;21.00;1.00
10566;DHT22;5331;48.148;16.326;2022-07-05T07:19:47;21.00;1.00
10566;DHT22;5331;48.148;16.326;2022-07-05T07:22:13;21.10;1.00
10566;DHT22;5331;48.148;16.326;2022-07-05T07:24:40;21.20;1.00
10566;DHT22;5331;48.148;16.326;2022-07-05T07:27:07;21.30;1.00
10566;DHT22;5331;48.148;16.326;2022-07-05T07:29:35;21.30;1.00
10566;DHT22;5331;48.148;16.326;2022-07-05T07:32:04;21.30;1.00
10566;DHT22;5331;48.148;16.326;2022-07-05T07:34:33;21.40;1.00
10566;DHT22;5331;48.148;16.326;2022-07-05T07:37:00;21.40;1.00
10566;DHT22;5331;48.148;16.326;2022-07-05T07:39:27;21.50;1.00
10566;DHT22;5331;48.148;16.326;2022-07-05T07:41:54;21.60;1.00
10566;DHT22;5331;48.148;16.326;2022-07-05T07:44:21;21.70;1.00
10566;DHT22;5331;48.148;16.326;2022-07-05T07:49:16;21.80;1.00
10566;DHT22;5331;48.148;16.326;2022-07-05T07:51:45;21.80;1.00
10566;DHT22;5331;48.148;16.326;2022-07-05T07:54:12;21.90;1.00
10566;DHT22;5331;48.148;16.326;2022-07-05T07:56:39;22.00;1.00
10566;DHT22;5331;48.148;16.326;2022-07-05T07:59:06;22.00;1.00
10566;DHT22;5331;48.148;16.326;2022-07-05T08:01:33;22.00;1.00
10566;DHT22;5331;48.148;16.326;2022-07-05T08:04:00;22.00;1.00
10566;DHT22;5331;48.148;16.326;2022-07-05T08:06:27;22.00;1.00
10566;DHT22;5331;48.148;16.326;2022-07-05T08:08:56;22.10;1.00
10566;DHT22;5331;48.148;16.326;2022-07-05T08:11:23;22.10;1.00
10566;DHT22;5331;48.148;16.326;2022-07-05T08:13:50;22.10;1.00
10566;DHT22;5331;48.148;16.326;2022-07-05T08:16:17;22.10;1.00
10566;DHT22;5331;48.148;16.326;2022-07-05T08:18:44;22.20;1.00
10566;DHT22;5331;48.148;16.326;2022-07-05T08:21:28;22.20;1.00
10566;DHT22;5331;48.148;16.326;2022-07-05T08:24:00;22.20;1.00
10566;DHT22;5331;48.148;16.326;2022-07-05T08:26:29;22.20;1.00
10566;DHT22;5331;48.148;16.326;2022-07-05T08:28:57;22.20;1.00
10566;DHT22;5331;48.148;16.326;2022-07-05T08:31:26;22.20;1.00
10566;DHT22;5331;48.148;16.326;2022-07-05T08:33:53;22.20;1.00
10566;DHT22;5331;48.148;16.326;2022-07-05T08:36:20;22.40;1.00
10566;DHT22;5331;48.148;16.326;2022-07-05T08:38:47;22.40;1.00
10566;DHT22;5331;48.148;16.326;2022-07-05T08:41:18;22.40;1.00
10566;DHT22;5331;48.148;16.326;2022-07-05T08:43:46;22.30;1.00
10566;DHT22;5331;48.148;16.326;2022-07-05T08:46:14;22.20;1.00
10566;DHT22;5331;48.148;16.326;2022-07-05T08:48:43;22.10;1.00
10566;DHT22;5331;48.148;16.326;2022-07-05T08:51:11;22.10;1.00
10566;DHT22;5331;48.148;16.326;2022-07-05T08:53:41;22.00;1.00
10566;DHT22;5331;48.148;16.326;2022-07-05T08:56:10;22.00;1.00
10566;DHT22;5331;48.148;16.326;2022-07-05T08:58:39;21.90;1.00
10566;DHT22;5331;48.148;16.326;2022-07-05T09:01:07;21.80;1.00
10566;DHT22;5331;48.148;16.326;2022-07-05T09:03:38;21.90;1.00
10566;DHT22;5331;48.148;16.326;2022-07-05T09:06:08;22.00;1.00
10566;DHT22;5331;48.148;16.326;2022-07-05T09:08:36;21.90;1.00
10566;DHT22;5331;48.148;16.326;2022-07-05T09:11:07;21.90;1.00
10566;DHT22;5331;48.148;16.326;2022-07-05T09:13:36;21.70;1.00
10566;DHT22;5331;48.148;16.326;2022-07-05T09:16:05;21.70;1.00
10566;DHT22;5331;48.148;16.326;2022-07-05T09:18:40;21.70;1.00
10566;DHT22;5331;48.148;16.326;2022-07-05T09:21:18;21.70;1.00
10566;DHT22;5331;48.148;16.326;2022-07-05T09:23:53;21.70;1.00
10566;DHT22;5331;48.148;16.326;2022-07-05T09:26:21;21.60;1.00
10566;DHT22;5331;48.148;16.326;2022-07-05T09:28:56;21.60;1.00
10566;DHT22;5331;48.148;16.326;2022-07-05T09:31:29;21.60;1.00
10566;DHT22;5331;48.148;16.326;2022-07-05T09:34:06;21.50;1.00
10566;DHT22;5331;48.148;16.326;2022-07-05T09:36:51;21.60;1.00
10566;DHT22;5331;48.148;16.326;2022-07-05T09:39:18;21.60;1.00
10566;DHT22;5331;48.148;16.326;2022-07-05T09:42:18;21.50;1.00
10566;DHT22;5331;48.148;16.326;2022-07-05T09:44:47;21.50;1.00
10566;DHT22;5331;48.148;16.326;2022-07-05T09:47:17;21.50;1.00
10566;DHT22;5331;48.148;16.326;2022-07-05T09:49:46;21.40;1.00
10566;DHT22;5331;48.148;16.326;2022-07-05T09:52:26;21.50;1.00
10566;DHT22;5331;48.148;16.326;2022-07-05T09:55:04;21.70;1.00
10566;DHT22;5331;48.148;16.326;2022-07-05T09:57:31;21.80;1.00
10566;DHT22;5331;48.148;16.326;2022-07-05T09:59:59;21.80;1.00
10566;DHT22;5331;48.148;16.326;2022-07-05T10:02:37;21.90;1.00
10566;DHT22;5331;48.148;16.326;2022-07-05T10:05:11;21.80;1.00
10566;DHT22;5331;48.148;16.326;2022-07-05T10:07:40;21.90;1.00
10566;DHT22;5331;48.148;16.326;2022-07-05T10:10:11;21.90;1.00
10566;DHT22;5331;48.148;16.326;2022-07-05T10:12:39;22.00;1.00
10566;DHT22;5331;48.148;16.326;2022-07-05T10:15:09;22.10;1.00
10566;DHT22;5331;48.148;16.326;2022-07-05T10:17:40;22.20;1.00
10566;DHT22;5331;48.148;16.326;2022-07-05T10:20:13;22.20;1.00
10566;DHT22;5331;48.148;16.326;2022-07-05T10:22:41;22.30;1.00
10566;DHT22;5331;48.148;16.326;2022-07-05T10:25:08;22.30;1.00
10566;DHT22;5331;48.148;16.326;2022-07-05T10:27:37;22.40;1.00
10566;DHT22;5331;48.148;16.326;2022-07-05T10:30:05;22.20;1.00
10566;DHT22;5331;48.148;16.326;2022-07-05T10:32:34;22.10;1.00
10566;DHT22;5331;48.148;16.326;2022-07-05T10:35:03;21.90;1.00
10566;DHT22;5331;48.148;16.326;2022-07-05T10:37:32;21.70;1.00
10566;DHT22;5331;48.148;16.326;2022-07-05T10:40:01;21.70;1.00
10566;DHT22;5331;48.148;16.326;2022-07-05T10:42:32;21.60;1.00
10566;DHT22;5331;48.148;16.326;2022-07-05T10:44:59;21.60;1.00
10566;DHT22;5331;48.148;16.326;2022-07-05T10:47:27;21.50;1.00
10566;DHT22;5331;48.148;16.326;2022-07-05T10:50:06;21.40;1.00
10566;DHT22;5331;48.148;16.326;2022-07-05T10:52:34;21.30;1.00
10566;DHT22;5331;48.148;16.326;2022-07-05T10:55:21;21.20;1.00
10566;DHT22;5331;48.148;16.326;2022-07-05T11:04:30;20.80;1.00
10566;DHT22;5331;48.148;16.326;2022-07-05T11:07:01;20.80;1.00
10566;DHT22;5331;48.148;16.326;2022-07-05T11:09:28;20.80;1.00
10566;DHT22;5331;48.148;16.326;2022-07-05T11:12:16;20.90;1.00
10566;DHT22;5331;48.148;16.326;2022-07-05T11:14:47;20.80;1.00
10566;DHT22;5331;48.148;16.326;2022-07-05T11:17:23;20.80;1.00
10566;DHT22;5331;48.148;16.326;2022-07-05T11:20:07;20.70;1.00
10566;DHT22;5331;48.148;16.326;2022-07-05T11:22:37;20.70;1.00
10566;DHT22;5331;48.148;16.326;2022-07-05T11:25:05;20.70;1.00
10566;DHT22;5331;48.148;16.326;2022-07-05T11:27:34;20.60;1.00
10566;DHT22;5331;48.148;16.326;2022-07-05T11:30:01;20.70;1.00
10566;DHT22;5331;48.148;16.326;2022-07-05T11:32:36;20.60;1.00
10566;DHT22;5331;48.148;16.326;2022-07-05T11:35:14;20.60;1.00
10566;DHT22;5331;48.148;16.326;2022-07-05T11:38:05;20.70;1.00
10566;DHT22;5331;48.148;16.326;2022-07-05T11:40:33;20.70;1.00
10566;DHT22;5331;48.148;16.326;2022-07-05T11:43:01;20.70;1.00
10566;DHT22;5331;48.148;16.326;2022-07-05T11:45:29;20.70;1.00
10566;DHT22;5331;48.148;16.326;2022-07-05T11:47:57;20.70;1.00
10566;DHT22;5331;48.148;16.326;2022-07-05T11:50:30;20.70;1.00
10566;DHT22;5331;48.148;16.326;2022-07-05T11:52:58;20.70;1.00
10566;DHT22;5331;48.148;16.326;2022-07-05T11:55:27;20.70;1.00
10566;DHT22;5331;48.148;16.326;2022-07-05T11:57:56;20.70;1.00
10566;DHT22;5331;48.148;16.326;2022-07-05T12:00:28;20.80;1.00
10566;DHT22;5331;48.148;16.326;2022-07-05T12:02:56;20.70;1.00
10566;DHT22;5331;48.148;16.326;2022-07-05T12:05:23;20.70;1.00
10566;DHT22;5331;48.148;16.326;2022-07-05T12:07:51;20.70;1.00
10566;DHT22;5331;48.148;16.326;2022-07-05T12:10:19;20.70;1.00
10566;DHT22;5331;48.148;16.326;2022-07-05T12:13:06;20.80;1.00
10566;DHT22;5331;48.148;16.326;2022-07-05T12:15:34;20.80;1.00
10566;DHT22;5331;48.148;16.326;2022-07-05T12:18:02;20.90;1.00
10566;DHT22;5331;48.148;16.326;2022-07-05T12:20:31;20.90;1.00
10566;DHT22;5331;48.148;16.326;2022-07-05T12:22:59;20.90;1.00
10566;DHT22;5331;48.148;16.326;2022-07-05T12:25:27;21.00;1.00
10566;DHT22;5331;48.148;16.326;2022-07-05T12:27:56;21.00;1.00
10566;DHT22;5331;48.148;16.326;2022-07-05T12:30:28;21.00;1.00
10566;DHT22;5331;48.148;16.326;2022-07-05T12:32:57;21.10;1.00
10566;DHT22;5331;48.148;16.326;2022-07-05T12:35:32;21.20;1.00
10566;DHT22;5331;48.148;16.326;2022-07-05T12:38:04;21.10;1.00
10566;DHT22;5331;48.148;16.326;2022-07-05T12:40:32;21.20;1.00
10566;DHT22;5331;48.148;16.326;2022-07-05T12:43:08;21.20;1.00
10566;DHT22;5331;48.148;16.326;2022-07-05T12:45:37;21.10;1.00
10566;DHT22;5331;48.148;16.326;2022-07-05T12:48:05;21.20;1.00
10566;DHT22;5331;48.148;16.326;2022-07-05T12:50:47;21.30;1.00
10566;DHT22;5331;48.148;16.326;2022-07-05T12:53:14;21.40;1.00
10566;DHT22;5331;48.148;16.326;2022-07-05T12:56:00;21.60;1.00
10566;DHT22;5331;48.148;16.326;2022-07-05T12:58:47;21.60;1.00
10566;DHT22;5331;48.148;16.326;2022-07-05T13:01:24;21.70;1.00
10566;DHT22;5331;48.148;16.326;2022-07-05T13:03:58;21.90;1.00
10566;DHT22;5331;48.148;16.326;2022-07-05T13:06:40;22.00;1.00
10566;DHT22;5331;48.148;16.326;2022-07-05T13:09:07;22.30;1.00
10566;DHT22;5331;48.148;16.326;2022-07-05T13:11:33;22.50;1.00
10566;DHT22;5331;48.148;16.326;2022-07-05T13:14:00;22.50;1.00
10566;DHT22;5331;48.148;16.326;2022-07-05T13:16:29;22.70;1.00
10566;DHT22;5331;48.148;16.326;2022-07-05T13:19:06;22.80;1.00
10566;DHT22;5331;48.148;16.326;2022-07-05T13:21:33;22.80;1.00
10566;DHT22;5331;48.148;16.326;2022-07-05T13:24:00;22.80;1.00
10566;DHT22;5331;48.148;16.326;2022-07-05T13:26:27;23.00;1.00
10566;DHT22;5331;48.148;16.326;2022-07-05T13:28:54;23.10;1.00
10566;DHT22;5331;48.148;16.326;2022-07-05T13:31:21;23.10;1.00
10566;DHT22;5331;48.148;16.326;2022-07-05T13:33:50;23.30;1.00
10566;DHT22;5331;48.148;16.326;2022-07-05T13:36:17;23.30;1.00
10566;DHT22;5331;48.148;16.326;2022-07-05T13:38:43;23.50;1.00
10566;DHT22;5331;48.148;16.326;2022-07-05T13:41:10;23.50;1.00
10566;DHT22;5331;48.148;16.326;2022-07-05T13:43:37;23.50;1.00
10566;DHT22;5331;48.148;16.326;2022-07-05T13:46:05;23.60;1.00
10566;DHT22;5331;48.148;16.326;2022-07-05T13:48:31;23.60;1.00
10566;DHT22;5331;48.148;16.326;2022-07-05T13:51:00;23.60;1.00
10566;DHT22;5331;48.148;16.326;2022-07-05T13:53:27;23.50;1.00
10566;DHT22;5331;48.148;16.326;2022-07-05T13:55:54;23.40;1.00
10566;DHT22;5331;48.148;16.326;2022-07-05T13:58:21;23.40;1.00
10566;DHT22;5331;48.148;16.326;2022-07-05T14:00:48;23.30;1.00
10566;DHT22;5331;48.148;16.326;2022-07-05T14:03:16;23.10;1.00
10566;DHT22;5331;48.148;16.326;2022-07-05T14:05:43;23.10;1.00
10566;DHT22;5331;48.148;16.326;2022-07-05T14:08:12;23.10;1.00
10566;DHT22;5331;48.148;16.326;2022-07-05T14:10:39;23.10;1.00
10566;DHT22;5331;48.148;16.326;2022-07-05T14:13:06;22.90;1.00
10566;DHT22;5331;48.148;16.326;2022-07-05T14:15:33;22.90;1.00
10566;DHT22;5331;48.148;16.326;2022-07-05T14:18:00;22.80;1.00
10566;DHT22;5331;48.148;16.326;2022-07-05T14:20:28;22.90;1.00
10566;DHT22;5331;48.148;16.326;2022-07-05T14:22:55;22.80;1.00
10566;DHT22;5331;48.148;16.326;2022-07-05T14:25:23;22.80;1.00
10566;DHT22;5331;48.148;16.326;2022-07-05T14:27:50;22.80;1.00
10566;DHT22;5331;48.148;16.326;2022-07-05T14:30:17;22.80;1.00
10566;DHT22;5331;48.148;16.326;2022-07-05T14:32:44;22.80;1.00
10566;DHT22;5331;48.148;16.326;2022-07-05T14:35:11;22.70;1.00
10566;DHT22;5331;48.148;16.326;2022-07-05T14:37:38;22.70;1.00
10566;DHT22;5331;48.148;16.326;2022-07-05T14:40:06;22.70;1.00
10566;DHT22;5331;48.148;16.326;2022-07-05T14:42:35;22.70;1.00
10566;DHT22;5331;48.148;16.326;2022-07-05T14:45:02;22.70;1.00
10566;DHT22;5331;48.148;16.326;2022-07-05T14:47:29;22.80;1.00
10566;DHT22;5331;48.148;16.326;2022-07-05T14:49:56;22.80;1.00
10566;DHT22;5331;48.148;16.326;2022-07-05T14:52:23;22.80;1.00
10566;DHT22;5331;48.148;16.326;2022-07-05T14:54:50;22.80;1.00
10566;DHT22;5331;48.148;16.326;2022-07-05T14:57:16;22.90;1.00
10566;DHT22;5331;48.148;16.326;2022-07-05T14:59:45;22.90;1.00
10566;DHT22;5331;48.148;16.326;2022-07-05T15:02:12;22.90;1.00
10566;DHT22;5331;48.148;16.326;2022-07-05T15:04:40;23.00;1.00
10566;DHT22;5331;48.148;16.326;2022-07-05T15:07:07;23.10;1.00
10566;DHT22;5331;48.148;16.326;2022-07-05T15:09:34;23.20;1.00
10566;DHT22;5331;48.148;16.326;2022-07-05T15:12:01;23.20;1.00
10566;DHT22;5331;48.148;16.326;2022-07-05T15:14:28;23.10;1.00
10566;DHT22;5331;48.148;16.326;2022-07-05T15:16:57;23.10;1.00
10566;DHT22;5331;48.148;16.326;2022-07-05T15:19:24;23.10;1.00
10566;DHT22;5331;48.148;16.326;2022-07-05T15:21:52;23.10;1.00
10566;DHT22;5331;48.148;16.326;2022-07-05T15:24:19;23.10;1.00
10566;DHT22;5331;48.148;16.326;2022-07-05T15:26:47;23.10;1.00
10566;DHT22;5331;48.148;16.326;2022-07-05T15:29:14;23.10;1.00
10566;DHT22;5331;48.148;16.326;2022-07-05T15:31:41;23.10;1.00
10566;DHT22;5331;48.148;16.326;2022-07-05T15:34:12;23.10;1.00
10566;DHT22;5331;48.148;16.326;2022-07-05T15:36:39;23.10;1.00
10566;DHT22;5331;48.148;16.326;2022-07-05T15:39:06;23.20;1.00
10566;DHT22;5331;48.148;16.326;2022-07-05T15:41:33;23.40;1.00
10566;DHT22;5331;48.148;16.326;2022-07-05T15:44:01;23.70;1.00
10566;DHT22;5331;48.148;16.326;2022-07-05T15:46:28;23.80;1.00
10566;DHT22;5331;48.148;16.326;2022-07-05T15:49:17;24.00;1.00
10566;DHT22;5331;48.148;16.326;2022-07-05T15:51:44;24.30;1.00
10566;DHT22;5331;48.148;16.326;2022-07-05T15:54:11;24.40;1.00
10566;DHT22;5331;48.148;16.326;2022-07-05T15:56:38;24.30;1.00
10566;DHT22;5331;48.148;16.326;2022-07-05T15:59:06;24.20;1.00
10566;DHT22;5331;48.148;16.326;2022-07-05T16:01:33;24.30;1.00
10566;DHT22;5331;48.148;16.326;2022-07-05T16:04:01;24.30;1.00